Flight Track Log - Related Links

Times and Time Zones

All times are in EDT time to prevent confusion due to time zone crossing. See the N487VC flight status page for this flight to view local times or setup timezone preferences in your user account.

Time Position Orientation Groundspeed Altitude Reporting Facility
EDT Latitude Longitude Course Direction KTS MPH feet Rate Location/Type
Sun 09:31:18 AM 41.0833 -73.7500 360° North 148 170 2,300  Level New York TRACON
Sun 09:32:12 AM 41.1167 -73.7500 360° North 177 204 4,200 2,211 Climbing New York TRACON
Sun 09:33:12 AM 41.1667 -73.7000 37° Northeast 183 211 6,500 1,400 Climbing New York TRACON
Sun 09:34:12 AM 41.2000 -73.6667 37° Northeast 214 246 7,000 1,190 Climbing New York TRACON
Sun 09:35:13 AM 41.2667 -73.6000 37° Northeast 234 269 8,900 992 Climbing New York TRACON
Sun 09:36:13 AM 41.3000 -73.5333 56° Northeast 253 291 9,000 48 Climbing New York TRACON
Sun 09:37:19 AM 41.3333 -73.4333 66° East 281 323 9,000  Level New York TRACON
Sun 09:38:19 AM 41.3667 -73.3333 66° East 284 327 9,000  Level New York TRACON
Sun 09:38:43 AM 41.3800 -73.3006 62° Northeast 281 323 9,000  Level Boston Center
Sun 09:39:31 AM 41.4078 -73.2206 65° Northeast 283 326 9,000  Level Boston Center
Sun 09:40:33 AM 41.4397 -73.1267 66° East 282 325 9,000  Level Boston Center
Sun 09:41:39 AM 41.4756 -73.0219 65° Northeast 279 321 9,000  Level Boston Center
Sun 09:42:40 AM 41.4969 -72.9222 74° East 284 327 9,000  Level Boston Center
Sun 09:43:40 AM 41.5017 -72.8114 87° East 289 333 9,000  Level Boston Center
Sun 09:44:41 AM 41.5039 -72.7061 88° East 279 321 9,000  Level Boston Center
Sun 09:45:44 AM 41.5103 -72.6064 85° East 281 323 9,000  Level Boston Center
Sun 09:46:22 AM 41.5147 -72.5344 85° East 282 325 9,000  Level Boston Center
Sun 09:46:40 AM 41.5167 -72.5011 86° East 282 325 9,000  Level Boston Center
Sun 09:47:35 AM 41.5231 -72.4094 85° East 282 325 9,000  Level Boston Center
Sun 09:48:38 AM 41.4958 -72.3181 112° Southeast 263 303 9,000  Level Boston Center
Sun 09:49:36 AM 41.4478 -72.2433 131° Southeast 260 299 9,000  Level Boston Center
Sun 09:50:37 AM 41.4122 -72.1522 117° Southeast 279 321 9,000  Level Boston Center
Sun 09:51:40 AM 41.3972 -72.0556 102° East 271 312 9,000  Level Boston Center
Sun 09:52:44 AM 41.3739 -71.9450 106° East 277 319 9,000  Level Boston Center
Sun 09:53:48 AM 41.3567 -71.8428 103° East 280 322 9,000  Level Boston Center
Sun 09:54:48 AM 41.3458 -71.7433 98° East 284 327 9,000  Level Boston Center
Sun 09:55:49 AM 41.3408 -71.6383 94° East 278 320 9,000  Level Boston Center
Sun 09:56:49 AM 41.3361 -71.5389 94° East 273 314 9,000  Level Boston Center
Sun 09:58:00 AM 41.3213 -71.4262 100° East  Level FlightAware Approximate
Sun 10:05:00 AM 41.2316 -70.7606 96° East  Level FlightAware Approximate
Sun 10:06:00 AM 41.2243 -70.6646 96° East  Level FlightAware Approximate
Sun 10:07:00 AM 41.2168 -70.5687 96° East  Level FlightAware Approximate
Sun 10:08:00 AM 41.2136 -70.4725 98° East  Level FlightAware Approximate
Sun 10:09:00 AM 41.2030 -70.3771 98° East  Level FlightAware Approximate
Sun 10:10:00 AM 41.2000 -70.2809 90° East  Level FlightAware Approximate
Sun 10:11:00 AM 41.2220 -70.1898 69° East  Level FlightAware Approximate
Sun 10:12:00 AM 41.2421 -70.0974 77° East  Level FlightAware Approximate
Sun 10:13:00 AM 41.2500 -70.0500 77° East  Level FlightAware Approximate
Sun 10:14:00 AM 41.2531 -70.0603 77° East  Level Estimated
Sun 10:15:00 AM 41.2531 -70.0603 77° East  Level Estimated
Sun 10:16:00 AM 41.2531 -70.0603 77° East  Level Estimated
Sun 10:17:00 AM 41.2531 -70.0603 77° East  Level Estimated
Sun 10:18:00 AM 41.2531 -70.0603 77° East  Level Estimated
Sun 10:19:00 AM 41.2531 -70.0603 77° East  Level Estimated
Sun 10:20:00 AM 41.2531 -70.0603 77° East  Level Estimated
Sun 10:21:00 AM 41.2531 -70.0603 77° East  Level Estimated
Sun 10:22:00 AM 41.2531 -70.0603 77° East  Level Estimated

Login

Don't have an account? Register now (free) for customized features, flight alerts, and more!